createdAt,value
2018-07-23T00:01:50.937Z,80.10
2018-07-23T00:03:55.665Z,81.10
2018-07-23T00:06:00.572Z,81.80
2018-07-23T00:08:05.833Z,81.60
2018-07-23T00:10:10.600Z,81.90
2018-07-23T00:12:15.348Z,82.00
2018-07-23T00:14:20.214Z,82.20
2018-07-23T00:16:24.954Z,82.60
2018-07-23T00:18:29.722Z,82.80
2018-07-23T00:20:34.487Z,84.80
2018-07-23T00:22:39.312Z,83.90
2018-07-23T00:24:44.087Z,84.30
2018-07-23T00:26:48.941Z,84.80
2018-07-23T00:28:53.704Z,83.30
2018-07-23T00:30:58.403Z,82.70
2018-07-23T00:33:03.153Z,83.70
2018-07-23T00:35:07.934Z,84.10
2018-07-23T00:37:12.649Z,84.20
2018-07-23T00:41:22.178Z,85.70
2018-07-23T00:43:26.946Z,84.90
2018-07-23T00:45:31.770Z,85.70
2018-07-23T00:47:36.486Z,85.70
2018-07-23T00:49:41.319Z,85.50
2018-07-23T00:51:46.134Z,86.00
2018-07-23T00:53:50.809Z,86.60
2018-07-23T00:55:55.503Z,86.10
2018-07-23T00:58:00.229Z,86.50
2018-07-23T01:00:05.490Z,86.60
2018-07-23T01:02:10.205Z,87.70
2018-07-23T01:04:14.927Z,87.40
2018-07-23T01:06:19.749Z,87.80
2018-07-23T01:08:24.521Z,89.30
2018-07-23T01:10:29.309Z,88.10
2018-07-23T01:12:35.063Z,88.70
2018-07-23T01:14:39.882Z,89.20
2018-07-23T01:16:44.752Z,89.10
2018-07-23T01:18:49.507Z,89.30
2018-07-23T01:20:54.252Z,90.00
2018-07-23T01:22:58.966Z,90.10
2018-07-23T01:25:03.789Z,90.00
2018-07-23T01:27:08.692Z,90.20
2018-07-23T01:31:18.347Z,90.50
2018-07-23T01:35:27.430Z,91.00
2018-07-23T01:37:32.230Z,91.40
2018-07-23T01:39:36.969Z,91.50
2018-07-23T01:41:41.658Z,91.50
2018-07-23T01:43:46.373Z,91.70
2018-07-23T01:45:51.077Z,92.10
2018-07-23T01:47:55.972Z,92.20
2018-07-23T01:50:00.927Z,92.40
2018-07-23T01:52:06.127Z,92.70
2018-07-23T01:54:11.027Z,92.90
2018-07-23T01:56:15.815Z,92.80
2018-07-23T01:58:20.573Z,93.20
2018-07-23T02:00:25.842Z,93.30
2018-07-23T02:02:30.565Z,93.20
2018-07-23T02:04:38.509Z,93.30
2018-07-23T02:06:43.563Z,93.60
2018-07-23T02:08:48.364Z,93.80
2018-07-23T02:10:53.112Z,94.00
2018-07-23T02:12:57.896Z,93.90
2018-07-23T02:15:02.651Z,94.20
2018-07-23T02:17:07.511Z,94.30
2018-07-23T02:19:12.248Z,93.90
2018-07-23T02:21:16.974Z,94.30
2018-07-23T02:23:21.700Z,94.40
2018-07-23T02:25:26.505Z,94.80
2018-07-23T02:27:31.321Z,94.70
2018-07-23T02:29:36.063Z,95.30
2018-07-23T02:31:40.815Z,94.90
2018-07-23T02:33:45.562Z,94.60
2018-07-23T02:35:50.242Z,94.80
2018-07-23T02:37:54.945Z,95.20
2018-07-23T02:39:59.681Z,95.10
2018-07-23T02:42:04.471Z,95.60
2018-07-23T02:44:09.319Z,95.90
2018-07-23T02:46:14.040Z,96.00
2018-07-23T02:48:18.781Z,96.30
2018-07-23T02:50:23.537Z,96.30
2018-07-23T02:52:28.370Z,96.20
2018-07-23T02:54:33.089Z,96.40
2018-07-23T02:56:37.808Z,96.10
2018-07-23T02:58:42.613Z,96.30
2018-07-23T03:00:47.393Z,96.40
2018-07-23T03:02:52.157Z,96.50
2018-07-23T03:07:01.531Z,96.70
2018-07-23T03:09:08.844Z,97.00
2018-07-23T03:11:13.629Z,97.10
2018-07-23T03:13:18.382Z,97.10
2018-07-23T03:15:23.265Z,97.20
2018-07-23T03:17:27.965Z,97.30
2018-07-23T03:19:32.688Z,97.50
2018-07-23T03:21:37.557Z,97.90
2018-07-23T03:23:42.365Z,97.20
2018-07-23T03:25:47.063Z,97.20
2018-07-23T03:27:51.818Z,97.50
2018-07-23T03:29:56.537Z,97.20
2018-07-23T03:32:01.237Z,97.30
2018-07-23T03:34:06.066Z,97.30
2018-07-23T03:36:10.795Z,97.20
2018-07-23T03:38:15.569Z,97.40
2018-07-23T03:40:20.375Z,97.20
2018-07-23T03:42:25.143Z,97.30
2018-07-23T03:44:29.833Z,97.40
2018-07-23T03:46:34.670Z,97.30
2018-07-23T03:48:39.410Z,97.30
2018-07-23T03:50:44.227Z,97.30
2018-07-23T03:52:48.949Z,97.30
2018-07-23T03:54:53.671Z,98.00
2018-07-23T03:56:58.501Z,97.80
2018-07-23T03:59:03.975Z,97.70
2018-07-23T04:01:09.039Z,97.80
2018-07-23T04:03:13.897Z,97.70
2018-07-23T04:05:18.600Z,97.70
2018-07-23T04:07:23.470Z,98.00
2018-07-23T04:09:28.242Z,97.90
2018-07-23T04:11:32.993Z,97.80
2018-07-23T04:15:42.268Z,97.80
2018-07-23T04:17:51.666Z,97.80
2018-07-23T04:19:56.444Z,98.10
2018-07-23T04:22:07.768Z,98.50
2018-07-23T04:24:12.549Z,98.30
2018-07-23T04:26:20.343Z,98.20
2018-07-23T04:28:25.140Z,98.00
2018-07-23T04:30:30.021Z,97.80
2018-07-23T04:32:34.978Z,98.00
2018-07-23T04:34:39.789Z,98.10
2018-07-23T04:36:44.611Z,98.00
2018-07-23T04:38:49.970Z,97.80
2018-07-23T04:41:01.897Z,97.80
2018-07-23T04:43:07.128Z,97.70
2018-07-23T04:45:12.077Z,97.80
2018-07-23T04:47:16.934Z,97.60
2018-07-23T04:49:21.837Z,97.80
2018-07-23T04:51:26.942Z,97.70
2018-07-23T04:53:32.365Z,97.30
2018-07-23T04:55:37.386Z,97.60
2018-07-23T04:57:42.157Z,97.40
2018-07-23T04:59:47.008Z,97.10
2018-07-23T05:01:51.939Z,96.80
2018-07-23T05:03:56.998Z,96.70
2018-07-23T05:06:02.317Z,96.50
2018-07-23T05:08:07.395Z,96.60
2018-07-23T05:10:12.600Z,96.20
2018-07-23T05:12:17.966Z,96.30
2018-07-23T05:14:22.826Z,95.80
2018-07-23T05:16:27.672Z,95.40
2018-07-23T05:18:32.733Z,95.40
2018-07-23T05:20:37.548Z,95.10
2018-07-23T05:22:42.749Z,95.30
2018-07-23T05:24:48.762Z,95.40
2018-07-23T05:28:58.681Z,94.30
2018-07-23T05:31:03.872Z,93.90
2018-07-23T05:33:09.057Z,93.70
2018-07-23T05:37:18.520Z,93.70
2018-07-23T05:39:23.518Z,93.70
2018-07-23T05:41:28.483Z,93.60
2018-07-23T05:43:33.516Z,93.30
2018-07-23T05:45:38.527Z,93.10
2018-07-23T05:47:43.302Z,93.40
2018-07-23T05:49:48.361Z,93.10
2018-07-23T05:51:53.441Z,93.40
2018-07-23T05:53:58.254Z,93.60
2018-07-23T05:56:03.159Z,93.50
2018-07-23T05:58:08.155Z,93.50
2018-07-23T06:00:13.086Z,93.50
2018-07-23T06:02:21.461Z,93.40
2018-07-23T06:04:26.210Z,93.60
2018-07-23T06:08:35.606Z,93.30
2018-07-23T06:10:40.571Z,93.50
2018-07-23T06:12:45.395Z,93.30
2018-07-23T06:15:53.470Z,93.50
2018-07-23T06:17:58.231Z,93.20
2018-07-23T06:20:02.989Z,93.40
2018-07-23T06:22:07.907Z,93.50
2018-07-23T06:24:12.754Z,93.50
2018-07-23T06:26:17.680Z,93.20
2018-07-23T06:28:22.730Z,93.20
2018-07-23T06:30:27.663Z,93.40
2018-07-23T06:32:32.682Z,93.20
2018-07-23T06:34:37.768Z,93.30
2018-07-23T06:36:42.529Z,93.40
2018-07-23T06:38:47.251Z,93.30
2018-07-23T06:40:52.135Z,93.10
2018-07-23T06:42:56.989Z,93.20
2018-07-23T06:45:01.965Z,93.00
2018-07-23T06:47:06.848Z,93.10
2018-07-23T06:49:11.687Z,92.70
2018-07-23T06:51:16.505Z,92.60
2018-07-23T06:53:21.270Z,92.60
2018-07-23T06:55:26.193Z,92.60
2018-07-23T06:57:31.068Z,92.60
2018-07-23T06:59:36.339Z,92.30
2018-07-23T07:01:41.181Z,92.40
2018-07-23T07:03:46.042Z,92.30
2018-07-23T07:05:50.784Z,92.20
2018-07-23T07:07:55.494Z,92.30
2018-07-23T07:10:02.373Z,91.90
2018-07-23T07:12:07.523Z,91.80
2018-07-23T07:14:12.356Z,91.50
2018-07-23T07:16:17.130Z,91.40
2018-07-23T07:18:21.877Z,91.00
2018-07-23T07:20:26.736Z,90.60
2018-07-23T07:22:31.567Z,89.30
2018-07-23T07:24:36.396Z,86.80
2018-07-23T07:26:41.452Z,84.80
2018-07-23T07:28:46.621Z,83.80
2018-07-23T07:30:51.418Z,82.90
2018-07-23T07:32:56.143Z,82.20
2018-07-23T07:35:00.934Z,83.50
2018-07-23T07:37:06.053Z,84.00
2018-07-23T07:39:12.689Z,84.20
2018-07-23T07:41:17.652Z,84.20
2018-07-23T07:43:22.466Z,83.90
2018-07-23T07:45:27.230Z,83.30
2018-07-23T07:47:32.230Z,82.70
2018-07-23T07:49:36.978Z,83.00
2018-07-23T07:51:41.784Z,82.30
2018-07-23T07:53:46.617Z,81.90
2018-07-23T07:55:51.392Z,80.30
2018-07-23T07:57:56.718Z,79.60
2018-07-23T08:00:01.622Z,78.50
2018-07-23T08:02:06.555Z,79.10
2018-07-23T08:04:11.288Z,79.20
2018-07-23T08:06:16.022Z,79.00
2018-07-23T08:08:20.825Z,77.00
2018-07-23T08:10:25.799Z,78.60
2018-07-23T08:12:30.879Z,77.20
2018-07-23T08:14:35.520Z,76.80
2018-07-23T08:16:40.400Z,75.60
2018-07-23T08:18:45.318Z,77.10
2018-07-23T08:20:56.321Z,76.50
2018-07-23T08:23:12.828Z,76.30
2018-07-23T08:25:20.103Z,77.50
2018-07-23T08:27:25.968Z,76.80
2018-07-23T08:29:32.913Z,77.60
2018-07-23T08:31:39.571Z,77.10
2018-07-23T08:33:44.469Z,77.60
2018-07-23T08:35:51.238Z,78.30
2018-07-23T08:37:56.149Z,78.40
2018-07-23T08:40:01.100Z,76.80
2018-07-23T08:42:06.041Z,77.10
2018-07-23T08:44:11.580Z,75.20
2018-07-23T08:46:16.706Z,74.90
2018-07-23T08:48:21.408Z,75.20
2018-07-23T08:50:26.865Z,75.80
2018-07-23T08:52:31.747Z,76.60
2018-07-23T08:54:36.661Z,77.40
2018-07-23T08:56:41.402Z,77.30
2018-07-23T08:58:46.202Z,77.30
2018-07-23T09:00:50.910Z,76.50
2018-07-23T09:02:55.676Z,74.10
2018-07-23T09:05:00.437Z,75.70
2018-07-23T09:07:05.156Z,75.50
2018-07-23T09:09:11.527Z,75.70
2018-07-23T09:11:16.453Z,75.30
2018-07-23T09:13:21.418Z,74.80
2018-07-23T09:15:26.228Z,75.70
2018-07-23T09:17:30.913Z,75.60
2018-07-23T09:19:35.972Z,73.70
2018-07-23T09:21:40.693Z,74.20
2018-07-23T09:23:45.444Z,72.80
2018-07-23T09:25:52.472Z,73.00
2018-07-23T09:27:57.253Z,72.50
2018-07-23T09:30:02.372Z,72.50
2018-07-23T09:32:07.505Z,72.30
2018-07-23T09:34:12.305Z,72.80
2018-07-23T09:36:17.131Z,72.70
2018-07-23T09:38:23.234Z,73.40
2018-07-23T09:40:28.137Z,73.20
2018-07-23T09:42:32.842Z,73.90
2018-07-23T09:44:37.523Z,73.00
2018-07-23T09:46:42.359Z,72.50
2018-07-23T09:48:47.237Z,72.80
2018-07-23T09:50:52.214Z,72.40
2018-07-23T09:52:57.188Z,71.70
2018-07-23T09:55:02.015Z,72.30
2018-07-23T09:57:07.105Z,72.60
2018-07-23T09:59:12.045Z,72.40
2018-07-23T10:01:19.666Z,72.30
2018-07-23T10:03:24.508Z,70.00
2018-07-23T10:05:29.425Z,69.80
2018-07-23T10:07:34.152Z,70.20
2018-07-23T10:09:38.874Z,69.60
2018-07-23T10:11:43.907Z,68.60
2018-07-23T10:13:48.680Z,68.50
2018-07-23T10:15:53.447Z,68.90
2018-07-23T10:17:59.145Z,69.20
2018-07-23T10:20:04.362Z,68.10
2018-07-23T10:22:10.034Z,68.60
2018-07-23T10:28:24.439Z,68.50
2018-07-23T10:30:29.740Z,69.00
2018-07-23T10:32:35.045Z,67.30
2018-07-23T10:34:39.948Z,68.30
2018-07-23T10:36:44.821Z,67.40
2018-07-23T10:38:49.590Z,67.80
2018-07-23T10:40:54.390Z,66.00
2018-07-23T10:42:59.090Z,65.70
2018-07-23T10:45:04.938Z,66.70
2018-07-23T10:47:11.466Z,65.40
2018-07-23T10:49:16.431Z,66.80
2018-07-23T10:51:21.217Z,66.50
2018-07-23T10:53:26.086Z,66.50
2018-07-23T10:55:30.900Z,67.10
2018-07-23T10:57:35.804Z,67.50
2018-07-23T10:59:40.686Z,66.40
2018-07-23T11:01:45.560Z,66.00
2018-07-23T11:03:50.521Z,65.70
2018-07-23T11:05:55.427Z,64.70
2018-07-23T11:08:00.356Z,64.90
2018-07-23T11:10:05.642Z,65.60
2018-07-23T11:12:10.440Z,65.70
2018-07-23T11:14:15.343Z,65.70
2018-07-23T11:16:20.092Z,66.10
2018-07-23T11:18:24.895Z,66.30
2018-07-23T11:20:29.688Z,65.60
2018-07-23T11:22:34.674Z,65.90
2018-07-23T11:24:45.389Z,66.50
2018-07-23T11:26:45.271Z,66.40
2018-07-23T11:28:50.103Z,65.10
2018-07-23T11:30:55.495Z,65.60
2018-07-23T11:33:00.425Z,66.50
2018-07-23T11:35:05.539Z,66.60
2018-07-23T11:37:10.531Z,66.70
2018-07-23T11:39:15.341Z,66.80
2018-07-23T11:41:20.236Z,67.50
2018-07-23T11:43:25.042Z,68.00
2018-07-23T11:45:30.735Z,68.00
2018-07-23T11:47:35.612Z,66.40
2018-07-23T11:49:40.462Z,66.00
2018-07-23T11:51:45.260Z,65.30
2018-07-23T11:55:54.688Z,65.70
2018-07-23T11:57:59.456Z,65.40
2018-07-23T12:00:04.485Z,64.70
2018-07-23T12:02:09.986Z,64.40
2018-07-23T12:04:14.870Z,65.20
2018-07-23T12:06:19.600Z,64.50
2018-07-23T12:08:24.379Z,65.00
2018-07-23T12:10:29.115Z,64.30
2018-07-23T12:12:34.829Z,64.60
2018-07-23T12:14:41.913Z,64.30
2018-07-23T12:16:46.785Z,63.70
2018-07-23T12:18:52.321Z,65.00
2018-07-23T12:20:57.281Z,64.10
2018-07-23T12:23:02.027Z,63.30
2018-07-23T12:25:07.334Z,63.00
2018-07-23T12:27:12.431Z,63.90
2018-07-23T12:29:17.198Z,63.30
2018-07-23T12:31:22.068Z,62.40
2018-07-23T12:33:27.024Z,62.20
2018-07-23T12:35:33.299Z,62.40
2018-07-23T12:37:38.393Z,61.70
2018-07-23T12:39:43.278Z,62.70
2018-07-23T12:41:47.968Z,61.80
2018-07-23T12:43:52.820Z,62.90
2018-07-23T12:45:57.744Z,63.30
2018-07-23T12:48:05.642Z,62.80
2018-07-23T12:50:10.649Z,63.10
2018-07-23T12:52:15.391Z,63.50
2018-07-23T12:54:20.276Z,63.20
2018-07-23T12:56:25.162Z,61.60
2018-07-23T12:58:29.980Z,62.10
2018-07-23T13:00:34.703Z,62.20
2018-07-23T13:02:40.776Z,61.10
2018-07-23T13:04:45.524Z,62.00
2018-07-23T13:06:50.316Z,61.70
2018-07-23T13:08:55.101Z,62.00
2018-07-23T13:10:59.796Z,61.10
2018-07-23T13:13:04.659Z,61.30
2018-07-23T13:15:09.429Z,61.40
2018-07-23T13:17:15.151Z,60.50
2018-07-23T13:19:20.094Z,61.80
2018-07-23T13:21:25.056Z,61.60
2018-07-23T13:23:29.826Z,60.80
2018-07-23T13:25:34.684Z,60.80
2018-07-23T13:27:39.505Z,61.00
2018-07-23T13:29:44.362Z,60.10
2018-07-23T13:31:49.563Z,59.70
2018-07-23T13:33:54.514Z,59.40
2018-07-23T13:35:59.407Z,60.00
2018-07-23T13:38:04.398Z,60.20
2018-07-23T13:40:10.741Z,60.30
2018-07-23T13:42:18.575Z,59.30
2018-07-23T13:44:23.333Z,59.00
2018-07-23T13:46:28.283Z,59.40
2018-07-23T13:48:32.965Z,59.00
2018-07-23T13:50:37.828Z,58.80
2018-07-23T13:52:42.974Z,59.00
2018-07-23T13:54:47.793Z,59.20
2018-07-23T13:56:52.500Z,59.20
2018-07-23T13:58:57.683Z,59.90
2018-07-23T14:01:03.347Z,58.70
2018-07-23T14:03:08.414Z,58.30
2018-07-23T14:05:13.311Z,58.40
2018-07-23T14:07:18.310Z,58.60
2018-07-23T14:09:23.385Z,58.90
2018-07-23T14:11:28.390Z,58.20
2018-07-23T14:13:33.551Z,58.10
2018-07-23T14:15:38.623Z,58.30
2018-07-23T14:17:43.437Z,57.90
2018-07-23T14:19:48.445Z,57.50
2018-07-23T14:21:53.220Z,57.40
2018-07-23T14:23:58.562Z,56.20
2018-07-23T14:26:03.290Z,56.30
2018-07-23T14:28:08.093Z,57.10
2018-07-23T14:30:12.900Z,56.80
2018-07-23T14:32:17.658Z,57.00
2018-07-23T14:34:22.521Z,57.10
2018-07-23T14:36:27.408Z,57.20
2018-07-23T14:38:32.194Z,57.40
2018-07-23T14:40:36.975Z,56.40
2018-07-23T14:42:41.869Z,56.50
2018-07-23T14:44:46.895Z,55.60
2018-07-23T14:46:51.818Z,56.10
2018-07-23T14:48:56.834Z,56.00
2018-07-23T14:51:01.822Z,55.80
2018-07-23T14:53:06.619Z,56.00
2018-07-23T14:55:11.503Z,55.80
2018-07-23T14:57:16.861Z,55.70
2018-07-23T14:59:21.655Z,55.70
2018-07-23T15:01:26.677Z,55.90
2018-07-23T15:03:34.051Z,55.60
2018-07-23T15:05:38.844Z,55.50
2018-07-23T15:07:43.780Z,55.00
2018-07-23T15:09:48.659Z,54.70
2018-07-23T15:11:53.402Z,54.50
2018-07-23T15:14:00.447Z,55.20
2018-07-23T15:16:05.372Z,54.90
2018-07-23T15:18:11.250Z,53.90
2018-07-23T15:20:16.410Z,54.80
2018-07-23T15:22:21.674Z,54.70
2018-07-23T15:24:32.069Z,54.40
2018-07-23T15:26:47.810Z,54.60
2018-07-23T15:28:54.623Z,55.20
2018-07-23T15:30:59.592Z,54.10
2018-07-23T15:33:04.416Z,54.30
2018-07-23T15:35:09.412Z,54.60
2018-07-23T15:37:16.211Z,54.70
2018-07-23T15:39:21.265Z,55.70
2018-07-23T15:41:26.097Z,54.90
2018-07-23T15:43:31.111Z,54.20
2018-07-23T15:45:37.441Z,54.70
2018-07-23T15:47:43.079Z,54.90
2018-07-23T15:49:47.836Z,53.90
2018-07-23T15:54:15.497Z,53.90
2018-07-23T15:56:28.759Z,54.20
2018-07-23T15:58:34.443Z,53.70
2018-07-23T16:00:39.323Z,53.40
2018-07-23T16:02:44.063Z,52.90
2018-07-23T16:04:48.961Z,52.40
2018-07-23T16:06:53.767Z,52.70
2018-07-23T16:08:58.760Z,52.90
2018-07-23T16:11:03.924Z,53.10
2018-07-23T16:13:08.638Z,53.50
2018-07-23T16:15:14.253Z,52.60
2018-07-23T16:17:18.968Z,52.20
2018-07-23T16:19:23.693Z,52.30
2018-07-23T16:21:28.417Z,53.20
2018-07-23T16:23:33.182Z,53.50
2018-07-23T16:27:42.166Z,51.90
2018-07-23T16:29:46.939Z,52.30
2018-07-23T16:31:51.658Z,52.00
2018-07-23T16:33:56.602Z,52.10
2018-07-23T16:36:01.481Z,52.30
2018-07-23T16:38:06.503Z,52.40
2018-07-23T16:40:11.486Z,51.50
2018-07-23T16:42:16.492Z,50.80
2018-07-23T16:44:21.307Z,51.50
2018-07-23T16:46:26.159Z,52.30
2018-07-23T16:48:30.893Z,50.50
2018-07-23T16:50:35.654Z,50.00
2018-07-23T16:52:40.518Z,50.50
2018-07-23T16:54:45.452Z,50.70
2018-07-23T16:56:50.422Z,50.50
2018-07-23T16:58:55.404Z,50.90
2018-07-23T17:01:00.191Z,50.70
2018-07-23T17:03:05.039Z,49.80
2018-07-23T17:05:09.830Z,49.60
2018-07-23T17:07:14.632Z,49.00
2018-07-23T17:09:19.269Z,49.40
2018-07-23T17:11:24.013Z,49.90
2018-07-23T17:13:28.794Z,49.20
2018-07-23T17:15:33.658Z,48.80
2018-07-23T17:17:39.273Z,48.50
2018-07-23T17:19:44.286Z,48.30
2018-07-23T17:21:50.465Z,48.70
2018-07-23T17:23:55.273Z,48.80
2018-07-23T17:26:00.203Z,49.00
2018-07-23T17:28:05.013Z,49.10
2018-07-23T17:30:09.965Z,48.90
2018-07-23T17:32:15.199Z,48.40
2018-07-23T17:34:19.983Z,47.50
2018-07-23T17:36:25.491Z,47.30
2018-07-23T17:38:30.986Z,47.90
2018-07-23T17:40:35.815Z,48.20
2018-07-23T17:42:43.211Z,47.80
2018-07-23T17:44:48.623Z,48.30
2018-07-23T17:46:54.029Z,48.40
2018-07-23T17:48:59.191Z,49.20
2018-07-23T17:51:04.435Z,48.10
2018-07-23T17:53:09.273Z,48.50
2018-07-23T17:55:14.287Z,48.40
2018-07-23T17:57:19.518Z,48.70
2018-07-23T17:59:24.507Z,48.50
2018-07-23T18:01:33.292Z,48.30
2018-07-23T18:03:38.395Z,48.50
2018-07-23T18:05:44.974Z,49.00
2018-07-23T18:07:53.017Z,49.50
2018-07-23T18:09:58.423Z,49.60
2018-07-23T18:12:03.560Z,49.60
2018-07-23T18:14:08.962Z,50.40
2018-07-23T18:16:14.059Z,51.00
2018-07-23T18:20:23.479Z,52.10
2018-07-23T18:22:28.621Z,51.90
2018-07-23T18:24:34.259Z,52.30
2018-07-23T18:26:38.986Z,52.40
2018-07-23T18:28:44.494Z,52.80
2018-07-23T18:30:49.721Z,53.50
2018-07-23T18:32:55.395Z,53.40
2018-07-23T18:35:02.217Z,53.60
2018-07-23T18:37:07.732Z,54.20
2018-07-23T18:39:13.713Z,55.10
2018-07-23T18:41:19.105Z,54.60
2018-07-23T18:43:26.711Z,54.10
2018-07-23T18:45:37.344Z,54.20
2018-07-23T18:47:43.860Z,55.20
2018-07-23T18:49:59.893Z,56.10
2018-07-23T18:54:12.667Z,55.20
2018-07-23T18:56:18.359Z,56.30
2018-07-23T18:58:24.603Z,56.20
2018-07-23T19:00:33.312Z,55.80
2018-07-23T19:02:41.280Z,56.50
2018-07-23T19:04:47.114Z,56.50
2018-07-23T19:06:53.117Z,57.20
2018-07-23T19:08:58.666Z,57.70
2018-07-23T19:11:04.511Z,58.20
2018-07-23T19:13:09.458Z,57.50
2018-07-23T19:15:14.168Z,59.10
2018-07-23T19:17:19.082Z,58.70
2018-07-23T19:19:24.113Z,59.60
2018-07-23T19:21:29.502Z,59.60
2018-07-23T19:23:34.674Z,60.70
2018-07-23T19:25:39.658Z,59.80
2018-07-23T19:27:45.263Z,60.40
2018-07-23T19:29:50.604Z,59.40
2018-07-23T19:31:55.733Z,59.30
2018-07-23T19:34:01.623Z,59.10
2018-07-23T19:36:08.117Z,59.50
2018-07-23T19:38:16.056Z,59.60
2018-07-23T19:40:21.346Z,60.60
2018-07-23T19:42:28.304Z,62.40
2018-07-23T19:44:33.215Z,61.50
2018-07-23T19:46:38.442Z,62.00
2018-07-23T19:48:44.537Z,61.40
2018-07-23T19:50:52.823Z,62.10
2018-07-23T19:52:58.412Z,61.50
2018-07-23T19:55:05.123Z,61.70
2018-07-23T19:57:11.929Z,63.40
2018-07-23T19:59:17.097Z,64.90
2018-07-23T20:01:26.436Z,64.90
2018-07-23T20:03:31.765Z,65.00
2018-07-23T20:05:38.169Z,64.20
2018-07-23T20:07:43.743Z,64.80
2018-07-23T20:09:50.108Z,65.00
2018-07-23T20:11:55.896Z,65.40
2018-07-23T20:16:16.872Z,66.40
2018-07-23T20:18:22.932Z,66.80
2018-07-23T20:20:27.977Z,67.00
2018-07-23T20:22:32.800Z,67.40
2018-07-23T20:24:37.661Z,67.80
2018-07-23T20:26:42.804Z,67.70
2018-07-23T20:28:55.036Z,68.00
2018-07-23T20:30:59.953Z,68.60
2018-07-23T20:33:05.023Z,68.70
2018-07-23T20:35:11.092Z,69.00
2018-07-23T20:37:16.181Z,69.10
2018-07-23T20:39:20.891Z,69.10
2018-07-23T20:41:25.931Z,68.90
2018-07-23T20:43:31.857Z,69.10
2018-07-23T20:45:36.908Z,69.50
2018-07-23T20:47:43.679Z,70.50
2018-07-23T20:49:49.095Z,70.30
2018-07-23T20:51:54.045Z,70.90
2018-07-23T20:53:59.040Z,71.10
2018-07-23T20:56:04.186Z,71.50
2018-07-23T20:58:09.435Z,71.70
2018-07-23T21:00:14.277Z,71.90
2018-07-23T21:02:19.168Z,72.40
2018-07-23T21:04:24.001Z,72.80
2018-07-23T21:06:29.639Z,73.20
2018-07-23T21:08:34.555Z,73.00
2018-07-23T21:10:39.494Z,73.20
2018-07-23T21:12:44.744Z,73.80
2018-07-23T21:14:49.741Z,74.30
2018-07-23T21:16:54.770Z,74.20
2018-07-23T21:19:00.725Z,75.00
2018-07-23T21:21:05.518Z,74.60
2018-07-23T21:23:10.362Z,74.70
2018-07-23T21:25:15.255Z,75.20
2018-07-23T21:27:20.031Z,75.90
2018-07-23T21:29:25.212Z,76.40
2018-07-23T21:31:30.410Z,77.20
2018-07-23T21:33:35.194Z,77.90
2018-07-23T21:35:40.233Z,78.10
2018-07-23T21:37:46.762Z,78.60
2018-07-23T21:39:51.640Z,79.10
2018-07-23T21:41:56.942Z,79.00
2018-07-23T21:44:02.194Z,78.90
2018-07-23T21:46:07.058Z,78.70
2018-07-23T21:48:12.305Z,79.00
2018-07-23T21:50:17.216Z,79.20
2018-07-23T21:52:22.595Z,79.40
2018-07-23T21:54:27.439Z,79.30
2018-07-23T21:56:32.214Z,79.10
2018-07-23T21:58:36.905Z,79.40
2018-07-23T22:00:41.845Z,80.30
2018-07-23T22:02:56.826Z,80.50
2018-07-23T22:05:02.474Z,80.90
2018-07-23T22:07:07.611Z,80.80
2018-07-23T22:09:13.650Z,80.50
2018-07-23T22:11:22.053Z,80.40
2018-07-23T22:13:27.046Z,80.70
2018-07-23T22:15:32.417Z,81.10
2018-07-23T22:17:37.536Z,81.20
2018-07-23T22:19:43.584Z,80.80
2018-07-23T22:21:48.684Z,81.00
2018-07-23T22:23:54.183Z,81.20
2018-07-23T22:25:58.989Z,82.10
2018-07-23T22:28:03.833Z,81.60
2018-07-23T22:30:08.789Z,81.40
2018-07-23T22:32:13.691Z,81.40
2018-07-23T22:34:18.600Z,81.60
2018-07-23T22:36:23.432Z,81.70
2018-07-23T22:38:28.205Z,81.70
2018-07-23T22:40:33.303Z,81.80
2018-07-23T22:42:39.004Z,81.80
2018-07-23T22:44:47.774Z,81.80
2018-07-23T22:46:52.677Z,82.00
2018-07-23T22:48:57.464Z,82.20
2018-07-23T22:51:02.278Z,83.00
2018-07-23T22:53:07.152Z,82.80
2018-07-23T22:55:11.839Z,82.40
2018-07-23T22:57:16.449Z,82.40
2018-07-23T22:59:21.273Z,82.50
2018-07-23T23:01:25.954Z,82.10
2018-07-23T23:03:30.701Z,82.20
2018-07-23T23:05:35.380Z,82.50
2018-07-23T23:07:40.062Z,82.20
2018-07-23T23:09:45.584Z,82.50
2018-07-23T23:11:50.218Z,83.10
2018-07-23T23:13:54.901Z,83.20
2018-07-23T23:15:59.739Z,82.60
2018-07-23T23:18:04.538Z,82.90
2018-07-23T23:20:09.993Z,83.20
2018-07-23T23:22:14.778Z,83.20
2018-07-23T23:24:19.443Z,83.30
2018-07-23T23:26:24.104Z,83.60
2018-07-23T23:28:28.811Z,83.70
2018-07-23T23:30:33.477Z,84.30
2018-07-23T23:32:38.144Z,84.20
2018-07-23T23:34:42.781Z,84.10
2018-07-23T23:36:47.516Z,84.40
2018-07-23T23:38:52.194Z,84.80
2018-07-23T23:40:56.869Z,85.40
2018-07-23T23:43:01.649Z,86.20
2018-07-23T23:45:06.631Z,86.50
2018-07-23T23:47:11.446Z,86.30
2018-07-23T23:49:16.100Z,86.40
2018-07-23T23:51:21.654Z,86.60
2018-07-23T23:53:26.406Z,87.10
2018-07-23T23:55:31.171Z,87.50
2018-07-23T23:57:35.898Z,88.00
2018-07-23T23:59:40.592Z,88.20
